Time;durP1;ratioP1;P1;durP2;ratioP2;P2;SDS_P1;SDS_P2;PMS_P1;PMS_P2;Temp;Humidity;BMP_temperature;BMP_pressure;BME280_temperature;BME280_humidity;BME280_pressure;Samples;Min_cycle;Max_cycle;Signal;HPM_P1;HPM_P2
2022/10/08 00:01:02;;;;;;;5.72;2.60;;;17.70;52.30;;;;;;4935234;29;20203;-37
2022/10/08 00:03:35;;;;;;;6.53;3.33;;;17.80;52.40;;;;;;4932139;29;20231;-37
2022/10/08 00:06:08;;;;;;;6.80;3.25;;;17.80;52.40;;;;;;4929117;29;20690;-39
2022/10/08 00:08:41;;;;;;;9.80;3.40;;;17.80;52.40;;;;;;4935131;29;20230;-52
2022/10/08 00:11:13;;;;;;;7.18;3.50;;;17.90;52.50;;;;;;4936027;29;20200;-40
2022/10/08 00:13:47;;;;;;;8.23;3.58;;;17.90;52.50;;;;;;4935496;29;20310;-40
2022/10/08 00:16:19;;;;;;;6.93;3.58;;;17.90;52.50;;;;;;4935734;29;20203;-45
2022/10/08 00:18:51;;;;;;;11.13;3.85;;;17.90;52.40;;;;;;4935934;29;20207;-41
2022/10/08 00:21:25;;;;;;;7.88;3.90;;;18.00;52.50;;;;;;4935594;29;20199;-39
2022/10/08 00:23:55;;;;;;;8.05;3.55;;;18.00;52.40;;;;;;4935264;29;20696;-42
2022/10/08 00:26:29;;;;;;;8.02;3.63;;;18.10;52.50;;;;;;4935405;29;20211;-48
2022/10/08 00:29:02;;;;;;;8.50;3.75;;;18.10;52.50;;;;;;4935297;29;20211;-49
2022/10/08 00:31:35;;;;;;;9.65;4.03;;;18.20;52.50;;;;;;4935367;29;20203;-43
2022/10/08 00:34:07;;;;;;;11.52;3.80;;;18.10;52.50;;;;;;4935495;29;20228;-53
2022/10/08 00:36:39;;;;;;;8.35;3.90;;;18.20;52.40;;;;;;4934813;29;20210;-45
2022/10/08 00:39:11;;;;;;;7.85;3.83;;;18.20;52.50;;;;;;4928213;29;20594;-43
2022/10/08 00:41:43;;;;;;;8.73;4.00;;;18.30;52.50;;;;;;4935623;29;20285;-50
2022/10/08 00:44:50;;;;;;;9.02;4.15;;;18.30;52.50;;;;;;4928431;29;20227;-44
2022/10/08 00:47:39;;;;;;;13.57;4.57;;;18.30;52.60;;;;;;4934933;29;20203;-48
2022/10/08 00:50:14;;;;;;;9.38;3.97;;;18.40;52.60;;;;;;4928503;29;20196;-36
2022/10/08 00:52:48;;;;;;;8.88;4.03;;;18.40;52.60;;;;;;4934655;29;20227;-39
2022/10/08 00:55:21;;;;;;;8.40;3.88;;;18.40;52.60;;;;;;4926771;29;20195;-43
2022/10/08 00:57:53;;;;;;;9.95;4.28;;;18.40;52.60;;;;;;4934334;29;20204;-43
2022/10/08 01:00:25;;;;;;;8.55;4.00;;;18.50;52.60;;;;;;4934974;29;20259;-48
2022/10/08 01:02:58;;;;;;;7.45;3.67;;;18.50;52.60;;;;;;4930778;29;20235;-39
2022/10/08 01:05:38;;;;;;;9.23;3.78;;;18.50;52.50;;;;;;4932999;29;20791;-38
2022/10/08 01:08:16;;;;;;;8.10;3.95;;;18.50;52.50;;;;;;4927971;29;20212;-48
2022/10/08 01:10:53;;;;;;;7.65;3.63;;;18.60;52.60;;;;;;4933805;29;20206;-37
2022/10/08 01:13:35;;;;;;;10.65;4.35;;;18.60;52.70;;;;;;4929337;29;20223;-46
2022/10/08 01:16:12;;;;;;;9.65;4.22;;;18.60;52.50;;;;;;4927464;29;20672;-41
2022/10/08 01:18:53;;;;;;;13.98;4.68;;;18.60;52.50;;;;;;4934587;29;20207;-44
2022/10/08 01:21:36;;;;;;;9.30;4.05;;;18.70;52.60;;;;;;4934069;29;20242;-38
2022/10/08 01:27:24;;;;;;;8.20;3.53;;;18.70;52.60;;;;;;4933570;29;20245;-36
2022/10/08 01:29:56;;;;;;;10.48;4.15;;;18.80;52.60;;;;;;4933951;29;20218;-36
2022/10/08 01:32:40;;;;;;;10.45;4.30;;;18.80;52.50;;;;;;4929843;29;20699;-40
2022/10/08 01:35:15;;;;;;;12.43;3.85;;;18.80;52.90;;;;;;4936305;29;20656;-38
2022/10/08 01:37:47;;;;;;;10.98;3.65;;;18.90;53.20;;;;;;4935533;29;20214;-38
2022/10/08 01:40:22;;;;;;;10.00;4.07;;;19.00;53.40;;;;;;4934055;29;20839;-38
2022/10/08 01:42:55;;;;;;;9.02;3.65;;;19.00;53.40;;;;;;4933804;29;20239;-38
2022/10/08 01:45:31;;;;;;;10.65;4.53;;;19.00;53.40;;;;;;4933947;29;20207;-37
2022/10/08 01:48:06;;;;;;;9.88;4.20;;;19.10;53.30;;;;;;4942395;29;20234;-46
2022/10/08 01:50:42;;;;;;;10.70;4.07;;;19.20;53.30;;;;;;4953291;28;20258;-39
2022/10/08 01:53:17;;;;;;;9.80;3.92;;;19.20;53.20;;;;;;4953231;28;20226;-37
2022/10/08 01:55:51;;;;;;;11.63;3.70;;;19.20;53.10;;;;;;4953573;28;20206;-39
2022/10/08 01:58:30;;;;;;;9.02;3.45;;;19.20;53.10;;;;;;4953128;28;20202;-39
2022/10/08 02:01:06;;;;;;;9.32;4.03;;;19.20;53.00;;;;;;4947285;28;20200;-37
2022/10/08 02:04:31;;;;;;;7.55;3.15;;;19.30;52.90;;;;;;4939740;28;20234;-43
2022/10/08 02:06:29;;;;;;;9.07;3.83;;;19.30;52.80;;;;;;4946782;29;20195;-42
2022/10/08 02:09:01;;;;;;;9.73;3.58;;;19.30;52.80;;;;;;4933991;29;20627;-36
2022/10/08 02:11:34;;;;;;;10.88;4.22;;;19.30;52.70;;;;;;4933668;29;20199;-47
2022/10/08 02:14:08;;;;;;;8.95;3.67;;;19.40;52.70;;;;;;4934003;29;20219;-45
2022/10/08 02:16:43;;;;;;;7.47;3.45;;;19.40;53.20;;;;;;4933819;29;20207;-38
2022/10/08 02:19:20;;;;;;;9.05;3.67;;;19.40;52.60;;;;;;4950440;29;20206;-42
2022/10/08 02:21:51;;;;;;;7.60;3.60;;;19.40;52.50;;;;;;4952676;28;20253;-38
2022/10/08 02:24:29;;;;;;;6.97;2.85;;;19.50;52.60;;;;;;4952429;28;20231;-40
2022/10/08 02:27:03;;;;;;;8.48;3.42;;;19.50;52.50;;;;;;4952793;28;20250;-37
2022/10/08 02:29:38;;;;;;;10.48;3.90;;;19.50;52.50;;;;;;4952544;28;20198;-39
2022/10/08 02:32:16;;;;;;;9.32;3.67;;;19.50;52.40;;;;;;4952812;28;20199;-38
2022/10/08 02:34:54;;;;;;;6.53;3.45;;;19.50;52.30;;;;;;4952848;28;20202;-40
2022/10/08 02:37:29;;;;;;;8.77;3.28;;;19.50;52.20;;;;;;4938999;28;20210;-38
2022/10/08 02:40:11;;;;;;;7.90;3.67;;;19.60;52.20;;;;;;4933137;29;20195;-39
2022/10/08 02:42:45;;;;;;;6.90;3.13;;;19.60;52.10;;;;;;4932653;29;20263;-37
2022/10/08 02:45:23;;;;;;;8.82;3.50;;;19.70;52.10;;;;;;4932949;29;20200;-36
2022/10/08 02:47:57;;;;;;;8.43;3.58;;;19.70;52.70;;;;;;4937785;29;20195;-37
2022/10/08 02:50:29;;;;;;;9.07;3.10;;;19.70;52.10;;;;;;4952355;28;20210;-47
2022/10/08 02:53:01;;;;;;;8.38;2.80;;;19.80;52.20;;;;;;4945136;28;20216;-40
2022/10/08 02:55:40;;;;;;;9.80;3.63;;;19.80;52.20;;;;;;4933506;29;20675;-44
2022/10/08 02:58:15;;;;;;;6.35;2.80;;;19.80;52.10;;;;;;4933131;29;20203;-37
2022/10/08 03:00:56;;;;;;;6.13;3.30;;;19.90;52.10;;;;;;4933226;29;20784;-36
2022/10/08 03:03:33;;;;;;;6.63;3.00;;;19.90;52.00;;;;;;4941078;29;20230;-37
2022/10/08 03:06:07;;;;;;;6.40;2.85;;;19.90;51.90;;;;;;4932897;28;20230;-37
2022/10/08 03:08:42;;;;;;;7.97;3.63;;;20.00;51.80;;;;;;4932754;29;20202;-42
2022/10/08 03:11:14;;;;;;;4.72;2.97;;;20.00;51.70;;;;;;4932881;29;20194;-40
2022/10/08 03:13:47;;;;;;;8.25;3.33;;;20.00;51.60;;;;;;4932946;29;20219;-44
2022/10/08 03:16:23;;;;;;;6.82;3.10;;;20.10;51.60;;;;;;4932868;29;20207;-37
2022/10/08 03:18:57;;;;;;;6.60;3.05;;;20.10;51.50;;;;;;4943676;29;20206;-46
2022/10/08 03:21:29;;;;;;;6.25;2.85;;;20.20;51.60;;;;;;4952125;28;20202;-38
2022/10/08 03:24:00;;;;;;;7.30;2.90;;;20.20;51.50;;;;;;4952000;28;20232;-37
2022/10/08 03:26:30;;;;;;;7.00;2.95;;;20.30;52.20;;;;;;4952145;28;20209;-41
2022/10/08 03:29:01;;;;;;;4.90;2.92;;;20.30;51.50;;;;;;4951951;28;20225;-41
2022/10/08 03:31:34;;;;;;;6.10;3.25;;;20.30;51.50;;;;;;4952017;28;20209;-36
2022/10/08 03:34:05;;;;;;;7.22;2.83;;;20.40;51.40;;;;;;4951386;28;20218;-39
2022/10/08 03:36:35;;;;;;;7.13;3.08;;;20.40;51.40;;;;;;4944401;28;20207;-40
2022/10/08 03:39:06;;;;;;;6.10;3.10;;;20.40;51.30;;;;;;4932742;29;20203;-36
2022/10/08 03:41:37;;;;;;;6.60;2.55;;;20.50;51.30;;;;;;4932660;29;20203;-42
2022/10/08 03:44:11;;;;;;;4.75;2.70;;;20.50;51.20;;;;;;4932749;29;20735;-38
2022/10/08 03:46:43;;;;;;;7.97;2.80;;;20.60;51.20;;;;;;4932631;29;20290;-36
2022/10/08 03:49:14;;;;;;;5.57;2.70;;;20.60;51.10;;;;;;4944323;29;20600;-39
2022/10/08 03:51:45;;;;;;;4.63;2.63;;;20.60;51.00;;;;;;4951590;28;20206;-37
2022/10/08 03:54:15;;;;;;;5.07;2.97;;;20.70;51.10;;;;;;4951354;28;20222;-41
2022/10/08 03:56:46;;;;;;;6.78;2.80;;;20.70;51.00;;;;;;4952146;28;20213;-37
2022/10/08 03:59:17;;;;;;;5.80;2.50;;;20.70;51.00;;;;;;4951882;28;20206;-39
2022/10/08 04:01:49;;;;;;;4.10;2.20;;;20.80;51.20;;;;;;4951868;28;20668;-37
2022/10/08 04:04:20;;;;;;;5.10;2.67;;;20.80;51.00;;;;;;4950951;28;20230;-37
2022/10/08 04:06:51;;;;;;;4.95;2.60;;;20.90;51.00;;;;;;4942187;28;20207;-37
2022/10/08 04:09:21;;;;;;;5.47;2.53;;;20.90;50.90;;;;;;4932434;29;20573;-36
2022/10/08 04:11:52;;;;;;;6.07;2.45;;;20.90;50.80;;;;;;4921982;29;20200;-41
2022/10/08 04:14:23;;;;;;;5.72;2.70;;;21.00;50.80;;;;;;4913387;29;20221;-39
2022/10/08 04:16:56;;;;;;;5.85;2.53;;;21.00;50.70;;;;;;4913116;29;20680;-42
2022/10/08 04:19:29;;;;;;;5.72;2.17;;;21.00;50.70;;;;;;4937706;29;20218;-39
2022/10/08 04:22:02;;;;;;;3.78;2.20;;;21.10;50.70;;;;;;4951244;28;20799;-37
2022/10/08 04:24:32;;;;;;;5.07;2.90;;;21.10;50.60;;;;;;4951208;28;20223;-36
2022/10/08 04:27:03;;;;;;;5.10;2.25;;;21.20;50.50;;;;;;4951531;28;20203;-37
2022/10/08 04:29:34;;;;;;;5.57;2.50;;;21.20;50.50;;;;;;4951552;28;20203;-41
2022/10/08 04:32:06;;;;;;;5.50;2.60;;;21.20;50.60;;;;;;4950862;28;20214;-39
2022/10/08 04:34:37;;;;;;;4.53;2.40;;;21.30;50.70;;;;;;4950501;28;20205;-41
2022/10/08 04:37:08;;;;;;;5.47;2.58;;;21.30;50.70;;;;;;4939547;28;20203;-40
2022/10/08 04:39:38;;;;;;;3.67;1.98;;;21.30;50.70;;;;;;4934759;29;20203;-37
2022/10/08 04:42:09;;;;;;;3.70;2.05;;;21.30;50.60;;;;;;4935741;29;20199;-39
2022/10/08 04:44:40;;;;;;;4.53;2.33;;;21.40;50.60;;;;;;4935741;29;20234;-37
2022/10/08 04:47:12;;;;;;;4.30;2.53;;;21.40;50.50;;;;;;4935663;29;20195;-39
2022/10/08 04:49:43;;;;;;;5.00;2.50;;;21.40;50.40;;;;;;4948428;29;20201;-37
2022/10/08 04:52:16;;;;;;;4.07;2.03;;;21.40;50.40;;;;;;4954686;28;20214;-37
2022/10/08 04:54:46;;;;;;;4.78;2.22;;;21.50;50.10;;;;;;4954608;28;20203;-39
2022/10/08 04:57:17;;;;;;;4.63;2.10;;;21.50;50.00;;;;;;4939486;28;20687;-36
2022/10/08 04:59:48;;;;;;;3.72;1.75;;;21.50;50.00;;;;;;4935024;29;20211;-39
2022/10/08 05:02:21;;;;;;;3.58;1.83;;;21.50;49.90;;;;;;4934878;29;20200;-39
2022/10/08 05:04:51;;;;;;;3.85;1.90;;;21.50;49.50;;;;;;4948486;29;20253;-37
2022/10/08 05:07:25;;;;;;;3.72;1.88;;;21.50;49.40;;;;;;4940808;28;20668;-39
2022/10/08 05:09:56;;;;;;;6.00;2.53;;;21.50;49.40;;;;;;4935230;29;20200;-38
2022/10/08 05:12:27;;;;;;;3.35;1.73;;;21.60;49.50;;;;;;4934926;29;20274;-43
2022/10/08 05:14:57;;;;;;;4.22;1.77;;;21.60;49.70;;;;;;4934388;29;20207;-41
2022/10/08 05:17:30;;;;;;;4.30;2.10;;;21.60;49.70;;;;;;4934323;29;20234;-38
2022/10/08 05:20:01;;;;;;;4.85;2.03;;;21.60;49.80;;;;;;4948264;29;20194;-41
2022/10/08 05:22:31;;;;;;;4.03;2.10;;;21.60;49.80;;;;;;4954126;28;20211;-37
2022/10/08 05:25:02;;;;;;;3.35;1.90;;;21.60;49.70;;;;;;4953641;28;20237;-37
2022/10/08 05:27:33;;;;;;;3.55;2.10;;;21.70;49.80;;;;;;4954105;28;20701;-37
2022/10/08 05:30:04;;;;;;;4.85;1.92;;;21.70;49.80;;;;;;4953930;28;20209;-39
2022/10/08 05:32:36;;;;;;;3.80;2.13;;;21.70;49.80;;;;;;4953615;28;20229;-36
2022/10/08 05:35:07;;;;;;;4.20;1.98;;;21.70;49.80;;;;;;4934723;28;20203;-37
2022/10/08 05:37:38;;;;;;;4.45;2.40;;;21.70;49.90;;;;;;4934964;29;20211;-45
2022/10/08 05:40:09;;;;;;;3.67;2.28;;;21.80;50.00;;;;;;4926667;29;20207;-44
2022/10/08 05:42:40;;;;;;;3.22;2.00;;;21.70;49.90;;;;;;4915176;29;20246;-40
2022/10/08 05:45:11;;;;;;;3.67;1.95;;;21.70;49.90;;;;;;4915854;29;20238;-44
2022/10/08 05:47:44;;;;;;;4.18;1.83;;;21.80;50.00;;;;;;4917105;29;20202;-45
2022/10/08 05:50:15;;;;;;;3.55;1.65;;;21.80;50.10;;;;;;4914861;29;20200;-37
2022/10/08 05:52:45;;;;;;;3.97;2.10;;;21.80;50.10;;;;;;4926870;29;20235;-37
2022/10/08 05:55:16;;;;;;;4.68;2.10;;;21.80;50.10;;;;;;4934547;29;20675;-37
2022/10/08 05:57:47;;;;;;;3.28;1.85;;;21.90;50.10;;;;;;4934543;29;20203;-37
2022/10/08 06:00:18;;;;;;;4.13;2.03;;;21.90;50.00;;;;;;4933208;29;20211;-39
2022/10/08 06:02:51;;;;;;;3.83;2.05;;;21.90;50.00;;;;;;4934322;29;20215;-41
2022/10/08 06:05:23;;;;;;;4.75;2.05;;;21.90;49.90;;;;;;4934624;29;20227;-38
2022/10/08 06:07:56;;;;;;;3.42;1.73;;;21.90;49.80;;;;;;4918772;29;20197;-37
2022/10/08 06:10:27;;;;;;;5.32;1.95;;;21.90;49.90;;;;;;4916093;29;20208;-45
2022/10/08 06:12:57;;;;;;;5.32;2.30;;;21.90;49.90;;;;;;4915096;29;20263;-46
2022/10/08 06:15:28;;;;;;;5.50;2.38;;;21.90;49.90;;;;;;4917922;29;20204;-47
2022/10/08 06:18:01;;;;;;;4.47;2.20;;;21.90;49.90;;;;;;4915265;29;20283;-38
2022/10/08 06:20:32;;;;;;;3.55;1.80;;;21.90;50.00;;;;;;4915320;29;20629;-41
2022/10/08 06:23:03;;;;;;;5.72;2.45;;;21.80;49.90;;;;;;4915937;29;20219;-42
2022/10/08 06:25:37;;;;;;;4.88;2.58;;;21.90;50.00;;;;;;4914872;29;20254;-38
2022/10/08 06:28:08;;;;;;;5.80;2.38;;;21.90;50.20;;;;;;4916600;29;20256;-43
2022/10/08 06:30:41;;;;;;;5.47;2.30;;;21.90;50.00;;;;;;4933983;29;20203;-38
2022/10/08 06:33:15;;;;;;;7.03;2.30;;;21.90;50.00;;;;;;4934286;29;20216;-45
2022/10/08 06:35:46;;;;;;;5.35;2.47;;;21.90;50.00;;;;;;4934367;29;20207;-41
2022/10/08 06:38:17;;;;;;;4.35;2.22;;;21.90;49.90;;;;;;4917291;29;20200;-42
2022/10/08 06:40:47;;;;;;;4.13;2.08;;;21.80;49.90;;;;;;4915224;29;20227;-40
2022/10/08 06:43:20;;;;;;;4.60;2.45;;;21.80;49.90;;;;;;4915430;29;20231;-39
2022/10/08 06:45:50;;;;;;;5.45;2.50;;;21.80;50.00;;;;;;4915300;29;20238;-39
2022/10/08 06:48:23;;;;;;;5.45;2.28;;;21.80;50.00;;;;;;4914684;29;20207;-42
2022/10/08 06:51:01;;;;;;;4.43;2.15;;;21.70;50.00;;;;;;4914840;29;20209;-41
2022/10/08 06:53:32;;;;;;;5.32;2.10;;;21.70;49.90;;;;;;4914499;29;20220;-42
2022/10/08 06:56:04;;;;;;;5.32;2.33;;;21.70;50.00;;;;;;4926132;29;20196;-44
2022/10/08 06:58:36;;;;;;;4.50;2.20;;;21.70;50.00;;;;;;4933853;29;20692;-43
2022/10/08 07:01:08;;;;;;;5.68;2.17;;;21.70;50.00;;;;;;4933874;29;20233;-43
2022/10/08 07:03:41;;;;;;;3.78;2.15;;;21.60;49.90;;;;;;4933542;29;20224;-39
2022/10/08 07:06:13;;;;;;;5.28;2.50;;;21.60;49.90;;;;;;4933121;29;20591;-38
2022/10/08 07:08:44;;;;;;;3.42;2.20;;;21.60;50.00;;;;;;4915951;29;20215;-41
2022/10/08 07:11:16;;;;;;;3.35;1.95;;;21.60;50.00;;;;;;4915179;29;20216;-37
2022/10/08 07:13:47;;;;;;;4.75;2.20;;;21.60;50.00;;;;;;4913455;29;20231;-38
2022/10/08 07:16:20;;;;;;;3.72;2.10;;;21.50;50.00;;;;;;4912099;29;20204;-47
2022/10/08 07:18:53;;;;;;;3.13;2.10;;;21.50;50.00;;;;;;4913306;29;20693;-41
2022/10/08 07:21:26;;;;;;;3.70;2.10;;;21.50;50.00;;;;;;4913576;29;20207;-40
2022/10/08 07:23:57;;;;;;;4.30;2.20;;;21.50;50.00;;;;;;4925862;29;20660;-39
2022/10/08 07:26:29;;;;;;;4.75;2.30;;;21.40;50.00;;;;;;4932861;28;20754;-40
2022/10/08 07:29:01;;;;;;;3.20;1.95;;;21.40;50.10;;;;;;4932933;29;20214;-36
2022/10/08 07:31:33;;;;;;;4.97;2.40;;;21.40;50.10;;;;;;4930642;29;20199;-38
2022/10/08 07:34:07;;;;;;;4.78;2.50;;;21.40;50.20;;;;;;4929689;29;20730;-38
2022/10/08 07:36:38;;;;;;;2.78;1.95;;;21.30;50.00;;;;;;4926292;29;20206;-38
2022/10/08 07:39:10;;;;;;;3.55;2.47;;;21.30;50.00;;;;;;4939409;29;20194;-39
2022/10/08 07:41:41;;;;;;;4.93;2.17;;;21.30;50.00;;;;;;4951696;28;20209;-40
2022/10/08 07:44:13;;;;;;;2.78;1.80;;;21.30;50.00;;;;;;4951734;28;20223;-37
2022/10/08 07:46:47;;;;;;;4.43;2.10;;;21.20;50.00;;;;;;4951945;28;20195;-46
2022/10/08 07:49:21;;;;;;;5.57;2.28;;;21.20;49.90;;;;;;4951745;28;20199;-51
2022/10/08 07:51:51;;;;;;;4.18;2.05;;;21.20;49.90;;;;;;4951852;28;20265;-44
2022/10/08 07:54:22;;;;;;;3.28;2.38;;;21.20;49.90;;;;;;4950777;28;20214;-42
2022/10/08 07:56:53;;;;;;;3.53;1.80;;;21.10;49.90;;;;;;4939917;28;20565;-44
2022/10/08 07:59:24;;;;;;;3.33;1.88;;;21.10;49.90;;;;;;4932425;29;20218;-38
2022/10/08 08:01:54;;;;;;;4.15;1.95;;;21.10;50.00;;;;;;4932433;29;20290;-47
2022/10/08 08:04:27;;;;;;;2.83;1.80;;;21.10;50.00;;;;;;4931996;29;20267;-46
2022/10/08 08:06:58;;;;;;;3.47;2.10;;;21.00;49.90;;;;;;4932460;29;20199;-37
2022/10/08 08:09:29;;;;;;;3.25;2.03;;;21.00;49.90;;;;;;4940747;29;20215;-37
2022/10/08 08:11:59;;;;;;;2.80;1.75;;;21.00;49.90;;;;;;4951804;28;20203;-37
2022/10/08 08:14:30;;;;;;;3.80;1.75;;;21.00;49.80;;;;;;4954502;28;20257;-40
2022/10/08 08:17:01;;;;;;;3.20;1.98;;;20.90;49.80;;;;;;4955100;28;20203;-39
2022/10/08 08:19:35;;;;;;;2.58;1.63;;;20.90;49.70;;;;;;4954769;28;20199;-38
2022/10/08 08:22:06;;;;;;;2.20;1.60;;;20.90;50.30;;;;;;4955219;28;20285;-43
2022/10/08 08:24:37;;;;;;;4.57;2.00;;;20.90;49.60;;;;;;4954730;28;20195;-42
2022/10/08 08:27:07;;;;;;;3.05;1.85;;;20.80;49.50;;;;;;4940983;28;20203;-41
2022/10/08 08:29:38;;;;;;;3.08;1.70;;;20.80;49.60;;;;;;4935792;29;20562;-40
2022/10/08 08:32:09;;;;;;;3.63;1.63;;;20.80;49.70;;;;;;4935577;29;20323;-38
2022/10/08 08:34:42;;;;;;;4.85;1.90;;;20.70;49.60;;;;;;4935837;29;20208;-40
2022/10/08 08:37:12;;;;;;;2.78;1.70;;;20.70;49.50;;;;;;4935622;29;20613;-38
2022/10/08 08:39:43;;;;;;;3.10;1.65;;;20.70;49.50;;;;;;4943993;29;20195;-40
2022/10/08 08:42:24;;;;;;;2.67;1.70;;;20.70;49.50;;;;;;4954727;28;20198;-39
2022/10/08 08:45:01;;;;;;;3.15;1.63;;;20.70;49.40;;;;;;4955123;28;20578;-40
2022/10/08 08:47:37;;;;;;;4.82;1.90;;;20.60;49.30;;;;;;4954598;28;20213;-41
2022/10/08 08:50:23;;;;;;;3.97;1.67;;;20.60;49.30;;;;;;4954428;28;20210;-37
2022/10/08 08:52:54;;;;;;;3.35;1.65;;;20.60;49.30;;;;;;4954097;28;20578;-39
2022/10/08 08:55:42;;;;;;;2.28;1.60;;;20.50;49.30;;;;;;4953358;28;20202;-41
2022/10/08 08:58:25;;;;;;;2.42;1.30;;;20.50;49.20;;;;;;4934825;29;20338;-39
2022/10/08 09:00:59;;;;;;;2.22;1.63;;;20.50;49.20;;;;;;4935043;29;20199;-40
2022/10/08 09:03:34;;;;;;;2.85;1.70;;;20.40;49.20;;;;;;4935022;29;20226;-37
2022/10/08 09:06:10;;;;;;;2.22;1.40;;;20.40;49.20;;;;;;4935356;29;20297;-41
2022/10/08 09:08:46;;;;;;;3.15;1.70;;;20.40;49.00;;;;;;4934909;29;20685;-38
2022/10/08 09:11:18;;;;;;;3.25;1.40;;;20.40;49.10;;;;;;4915604;29;20200;-38
2022/10/08 09:13:54;;;;;;;3.55;1.88;;;20.30;49.00;;;;;;4915842;29;20234;-36
2022/10/08 09:16:25;;;;;;;2.40;1.40;;;20.30;49.00;;;;;;4916393;29;20210;-45
2022/10/08 09:18:56;;;;;;;3.00;1.30;;;20.30;49.10;;;;;;4916262;29;20217;-46
2022/10/08 09:21:33;;;;;;;3.25;1.67;;;20.30;49.00;;;;;;4916040;29;20200;-40
2022/10/08 09:24:03;;;;;;;3.63;1.45;;;20.20;48.90;;;;;;4915517;29;21293;-43
2022/10/08 09:26:35;;;;;;;1.95;1.40;;;20.20;48.90;;;;;;4933181;29;20223;-38
2022/10/08 09:29:07;;;;;;;3.28;1.55;;;20.20;48.90;;;;;;4936003;29;20251;-41
2022/10/08 09:31:46;;;;;;;2.35;1.27;;;20.10;48.90;;;;;;4919882;29;20201;-42
2022/10/08 09:34:21;;;;;;;2.17;1.20;;;20.10;48.90;;;;;;4915964;29;20224;-38
2022/10/08 09:36:55;;;;;;;2.22;1.40;;;20.10;48.90;;;;;;4918395;29;20195;-37
2022/10/08 09:39:27;;;;;;;3.03;1.40;;;20.10;48.80;;;;;;4916321;29;20196;-39
2022/10/08 09:42:16;;;;;;;2.92;1.40;;;20.00;48.80;;;;;;4916282;29;20204;-39
2022/10/08 09:44:47;;;;;;;3.22;1.30;;;20.00;48.70;;;;;;4935095;29;20231;-42
2022/10/08 09:47:20;;;;;;;2.17;1.25;;;20.00;48.80;;;;;;4934920;29;20200;-49
2022/10/08 09:50:05;;;;;;;1.52;1.10;;;20.00;48.90;;;;;;4934684;29;20192;-37
2022/10/08 09:52:42;;;;;;;1.95;1.33;;;19.90;48.90;;;;;;4935252;29;20224;-42
2022/10/08 09:55:22;;;;;;;4.07;1.50;;;19.90;48.90;;;;;;4934893;29;20203;-41
2022/10/08 09:57:55;;;;;;;1.67;1.23;;;19.90;48.90;;;;;;4916403;29;20208;-38
2022/10/08 10:00:29;;;;;;;1.30;1.20;;;19.90;48.90;;;;;;4915900;29;20215;-38
2022/10/08 10:03:01;;;;;;;2.15;1.40;;;19.80;48.90;;;;;;4915682;29;20234;-41
2022/10/08 10:05:34;;;;;;;2.45;1.15;;;19.80;49.00;;;;;;4915686;29;20216;-41
2022/10/08 10:08:07;;;;;;;1.95;1.23;;;19.70;48.90;;;;;;4915516;29;20207;-39
2022/10/08 10:10:43;;;;;;;2.88;1.10;;;19.70;48.90;;;;;;4915071;29;20545;-40
2022/10/08 10:13:19;;;;;;;2.03;1.23;;;19.70;48.90;;;;;;4915440;29;20239;-45
2022/10/08 10:15:54;;;;;;;2.88;1.58;;;19.70;48.90;;;;;;4915242;29;20668;-37
2022/10/08 10:18:30;;;;;;;2.38;1.45;;;19.70;48.90;;;;;;4916456;29;20286;-48
2022/10/08 10:21:04;;;;;;;2.83;1.42;;;19.60;48.90;;;;;;4934308;29;20200;-37
2022/10/08 10:23:40;;;;;;;2.88;1.30;;;19.60;48.90;;;;;;4933679;29;20219;-37
2022/10/08 10:26:15;;;;;;;2.17;1.08;;;19.60;49.00;;;;;;4933857;29;20234;-39
2022/10/08 10:28:52;;;;;;;1.75;1.20;;;19.50;49.00;;;;;;4933940;29;20207;-41
2022/10/08 10:31:27;;;;;;;1.80;1.13;;;19.50;49.00;;;;;;4915323;29;20199;-38
2022/10/08 10:34:01;;;;;;;1.92;1.15;;;19.50;49.00;;;;;;4915252;29;20223;-40
2022/10/08 10:36:36;;;;;;;1.50;1.10;;;19.40;49.00;;;;;;4914925;29;20199;-45
2022/10/08 10:39:16;;;;;;;2.22;1.20;;;19.40;49.00;;;;;;4915496;29;20196;-37
2022/10/08 10:41:52;;;;;;;2.08;1.13;;;19.40;49.00;;;;;;4914864;29;20275;-41
2022/10/08 10:44:28;;;;;;;1.65;1.35;;;19.40;49.00;;;;;;4914854;29;20227;-38
2022/10/08 10:47:01;;;;;;;1.95;1.10;;;19.40;49.00;;;;;;4915195;29;20231;-37
2022/10/08 10:49:37;;;;;;;2.20;1.10;;;19.30;48.90;;;;;;4914526;29;20202;-37
2022/10/08 10:52:30;;;;;;;1.60;1.30;;;19.30;49.00;;;;;;4915519;29;20196;-38
2022/10/08 10:55:18;;;;;;;2.42;1.02;;;19.30;49.10;;;;;;4914813;29;20303;-37
2022/10/08 10:58:03;;;;;;;1.45;1.02;;;19.20;49.10;;;;;;4915677;29;20260;-40
2022/10/08 11:00:41;;;;;;;2.03;0.93;;;19.20;49.10;;;;;;4914831;29;20215;-38
2022/10/08 11:03:18;;;;;;;1.83;1.10;;;19.20;49.20;;;;;;4915489;29;20639;-38
2022/10/08 11:05:53;;;;;;;2.15;1.30;;;19.10;49.20;;;;;;4932105;29;20227;-48
2022/10/08 11:08:32;;;;;;;1.92;1.40;;;19.10;49.20;;;;;;4934543;29;20245;-36
2022/10/08 11:11:16;;;;;;;1.80;1.17;;;19.10;49.20;;;;;;4934026;29;20570;-36
2022/10/08 11:14:13;;;;;;;1.67;1.10;;;19.00;49.20;;;;;;4933052;29;20219;-36
2022/10/08 11:16:56;;;;;;;2.35;1.27;;;19.00;49.20;;;;;;4932915;29;20206;-37
2022/10/08 11:19:39;;;;;;;2.25;1.00;;;19.00;49.20;;;;;;4932523;29;20203;-38
2022/10/08 11:22:17;;;;;;;1.98;1.02;;;19.00;49.10;;;;;;4932716;28;20203;-36
2022/10/08 11:25:04;;;;;;;1.63;0.88;;;18.90;49.20;;;;;;4951571;28;20199;-36
2022/10/08 11:27:45;;;;;;;1.95;1.10;;;18.90;49.20;;;;;;4933887;28;20238;-37
2022/10/08 11:30:19;;;;;;;1.25;1.10;;;18.90;49.20;;;;;;4932669;29;20211;-37
2022/10/08 11:32:55;;;;;;;1.83;1.00;;;18.80;49.30;;;;;;4932309;29;20220;-36
2022/10/08 11:35:32;;;;;;;1.48;1.00;;;18.80;49.20;;;;;;4932558;29;20210;-40
2022/10/08 11:38:10;;;;;;;2.53;1.10;;;18.80;49.20;;;;;;4940786;29;20202;-36
2022/10/08 11:40:45;;;;;;;1.25;1.00;;;18.70;49.20;;;;;;4952039;28;20203;-37
2022/10/08 11:43:29;;;;;;;2.33;1.10;;;18.70;49.40;;;;;;4951507;28;20225;-37
2022/10/08 11:46:32;;;;;;;1.50;1.10;;;18.70;49.30;;;;;;4946560;28;20231;-36
2022/10/08 11:49:04;;;;;;;1.25;0.90;;;18.70;49.30;;;;;;4857262;29;20707;-37
2022/10/08 11:51:40;;;;;;;1.48;1.02;;;18.70;49.20;;;;;;4858796;29;20193;-36
2022/10/08 11:54:18;;;;;;;1.70;1.00;;;18.70;49.30;;;;;;4924151;28;20226;-37
2022/10/08 11:56:50;;;;;;;1.20;0.95;;;18.60;49.20;;;;;;4944862;28;20614;-36
2022/10/08 11:59:45;;;;;;;1.40;0.82;;;18.60;49.30;;;;;;4936462;29;20199;-39
2022/10/08 12:02:37;;;;;;;2.05;1.10;;;18.50;49.30;;;;;;4934781;29;20199;-37
2022/10/08 12:05:36;;;;;;;1.58;1.13;;;18.50;49.30;;;;;;4934206;29;20196;-37
2022/10/08 12:08:07;;;;;;;1.38;1.00;;;18.50;49.30;;;;;;4943131;29;20571;-36
2022/10/08 12:10:38;;;;;;;1.80;1.10;;;18.50;49.30;;;;;;4955568;28;20218;-37
2022/10/08 12:13:27;;;;;;;2.40;1.17;;;18.50;49.30;;;;;;4925422;29;20234;-36
2022/10/08 12:16:03;;;;;;;1.20;1.00;;;18.40;49.30;;;;;;4936200;29;20203;-36
2022/10/08 12:18:45;;;;;;;1.02;0.88;;;18.50;49.30;;;;;;4935856;29;20246;-39
2022/10/08 12:21:50;;;;;;;1.02;0.90;;;18.40;49.20;;;;;;4935923;29;20219;-37
2022/10/08 12:24:52;;;;;;;2.10;1.10;;;18.40;49.30;;;;;;4930112;29;20278;-37
2022/10/08 12:27:40;;;;;;;1.25;0.85;;;18.40;49.10;;;;;;4938989;28;20246;-36
2022/10/08 12:30:13;;;;;;;1.40;1.00;;;18.40;49.10;;;;;;4936407;29;20200;-36
2022/10/08 12:33:00;;;;;;;2.08;1.35;;;18.40;49.10;;;;;;4936034;29;20223;-38
2022/10/08 12:35:34;;;;;;;1.33;1.00;;;18.30;49.10;;;;;;4936080;29;20199;-38
2022/10/08 12:38:28;;;;;;;1.85;1.10;;;18.30;49.10;;;;;;4941346;29;20207;-37
2022/10/08 12:41:18;;;;;;;1.42;1.02;;;18.30;49.20;;;;;;4954553;28;20206;-37
2022/10/08 12:43:54;;;;;;;1.83;0.95;;;18.30;49.20;;;;;;4948211;28;20230;-37
2022/10/08 12:46:35;;;;;;;1.80;1.20;;;18.30;49.20;;;;;;4925122;29;20246;-36
2022/10/08 12:49:19;;;;;;;1.40;0.90;;;18.20;49.10;;;;;;4916873;29;20223;-37
2022/10/08 12:52:01;;;;;;;1.63;0.90;;;18.20;49.20;;;;;;4916931;29;20499;-40
2022/10/08 12:54:33;;;;;;;1.77;1.10;;;18.20;49.20;;;;;;4949136;29;20206;-37
2022/10/08 12:57:11;;;;;;;1.60;1.10;;;18.20;49.10;;;;;;4941545;28;20211;-37
2022/10/08 12:59:44;;;;;;;2.40;1.10;;;18.20;49.10;;;;;;4935094;29;20211;-38
2022/10/08 13:02:37;;;;;;;1.50;1.00;;;18.20;49.00;;;;;;4935481;29;20782;-38
2022/10/08 13:05:27;;;;;;;3.13;1.33;;;18.20;49.10;;;;;;4934868;29;20251;-41
2022/10/08 13:07:58;;;;;;;1.40;1.00;;;18.10;49.10;;;;;;4936752;29;20268;-41
2022/10/08 13:10:30;;;;;;;1.10;1.00;;;18.10;49.10;;;;;;4954065;28;20199;-38
2022/10/08 13:13:08;;;;;;;1.33;0.90;;;18.10;49.10;;;;;;4954145;28;20222;-42
2022/10/08 13:15:39;;;;;;;1.52;0.90;;;18.10;49.10;;;;;;4954040;28;20210;-38
2022/10/08 13:18:22;;;;;;;1.50;1.00;;;18.00;49.10;;;;;;4954110;28;20203;-36
2022/10/08 13:21:02;;;;;;;2.17;1.08;;;18.00;49.10;;;;;;4945937;28;20207;-36
2022/10/08 13:23:37;;;;;;;1.75;1.05;;;18.00;49.10;;;;;;4941575;29;20586;-37
2022/10/08 13:26:41;;;;;;;2.10;0.95;;;18.00;49.10;;;;;;4948162;28;20203;-40
2022/10/08 13:29:32;;;;;;;1.10;0.85;;;18.00;49.00;;;;;;4934618;29;20265;-36